Aeroporto :
LOGIN :

Iscrizione | Disclaimer

   EN    FR    IT 

 










Sommario :    VFR   VFR Marginale   IFR   IFR Intensivo   IFR Molto Intensivo
Visibilità : 
Base nubi : 
>= 8 km
>= 3000ft
5 / 8 km
1000 / 3000 ft
1500m / 5 km
500 / 1000 ft
800 / 1500m
200 / 500 ft
< 800m
< 200 ft
Simboli :   Temporali  Nebbia  Neve Forte  Precipitazioni Forti  Vento > 20 kt
SIGMETs :   Varie  Temporali  Ghiacco  Turbolenza  Onda orograficha  Ceneri Vulcaniche







- Altitudine del aeroporto : 30 ft
- Codice IATA : CFN


EIDL - Donegal

ULTIMO METAR :
  • 201030Z 22018KT 9999 BKN006 BKN032 OVC048 10/09 Q1003

METARs OBSOLETI :
  • 201000Z 24023KT 9999 -RA BKN007 OVC029 10/09 Q1002 REDZ
  • 200930Z 20024KT 9999 BKN017 OVC025 12/09 Q1001
  • 200900Z 20022G36KT 9999 BKN022 OVC030 12/09 Q1001
  • 200830Z 19023KT 9999 OVC020 12/09 Q1000
  • 200800Z 19024KT 9999 BKN020 OVC028 12/09 Q1000

TAF TAF EIDL
Valido dal 20 a 09 ore il 20 a 18 ore UTC


200800Z 2009/2018 19020KT 9999 BKN020
TEMPO 2009/2018 20025G35KT 4000 -RADZ BKN008
PROB40
TEMPO 2015/2018 2000 BR BKN004
Nessun NOTAM noto per questo aeroporto.



MetMap, La meteo Aeronautica in un colpo d'occhio ! - Copyright ORBIFLY Dicembre 2007 - Disclaimer

ORBIFLY MET'MAP TEAM :

Programmazione e sviluppo : Alexandra Zaïnal
Concezione e sviluppo : Baudouin d'Aumeries
Co-Programmazione e sviluppo : Marc-Olivier Méhu
Supporto tecnico e logistico : Manuel Goepfert
Aiuto per la traduzione : Arnaldo La Scala

Contatto : metmap@orbifly.com




FONTI E CREDITI :

   NOAA